createdAt,value
2023-03-12T00:00:40.841Z,3
2023-03-12T00:01:40.842Z,4
2023-03-12T00:02:40.951Z,4
2023-03-12T00:03:40.951Z,4
2023-03-12T00:04:40.848Z,4
2023-03-12T00:05:40.856Z,4
2023-03-12T00:06:40.907Z,4
2023-03-12T00:07:40.871Z,4
2023-03-12T00:08:40.885Z,5
2023-03-12T00:09:40.890Z,4
2023-03-12T00:10:40.870Z,4
2023-03-12T00:11:40.846Z,4
2023-03-12T00:12:40.866Z,4
2023-03-12T00:13:40.845Z,4
2023-03-12T00:14:40.843Z,4
2023-03-12T00:15:40.898Z,4
2023-03-12T00:16:40.853Z,4
2023-03-12T00:17:40.846Z,4
2023-03-12T00:18:40.849Z,3
2023-03-12T00:19:40.849Z,4
2023-03-12T00:20:40.904Z,4
2023-03-12T00:21:40.847Z,4
2023-03-12T00:22:40.919Z,4
2023-03-12T00:23:40.871Z,4
2023-03-12T00:24:40.945Z,4
2023-03-12T00:26:40.878Z,4
2023-03-12T00:27:40.847Z,4
2023-03-12T00:28:40.841Z,4
2023-03-12T00:29:40.849Z,4
2023-03-12T00:30:40.832Z,4
2023-03-12T00:31:40.885Z,4
2023-03-12T00:32:40.948Z,4
2023-03-12T00:33:40.887Z,4
2023-03-12T00:34:40.838Z,4
2023-03-12T00:35:40.889Z,4
2023-03-12T00:36:40.829Z,4
2023-03-12T00:37:40.848Z,4
2023-03-12T00:38:40.822Z,4
2023-03-12T00:39:40.876Z,4
2023-03-12T00:40:40.831Z,4
2023-03-12T00:41:40.823Z,4
2023-03-12T00:42:40.841Z,4
2023-03-12T00:43:40.828Z,4
2023-03-12T00:44:40.829Z,4
2023-03-12T00:45:40.832Z,4
2023-03-12T00:46:40.901Z,4
2023-03-12T00:47:40.841Z,3
2023-03-12T00:48:40.832Z,4
2023-03-12T00:49:40.843Z,4
2023-03-12T00:50:40.828Z,4
2023-03-12T00:51:40.824Z,3
2023-03-12T00:52:40.852Z,3
2023-03-12T00:53:40.848Z,3
2023-03-12T00:54:40.829Z,3
2023-03-12T00:55:40.855Z,3
2023-03-12T00:56:40.837Z,3
2023-03-12T00:57:40.844Z,3
2023-03-12T00:58:40.885Z,3
2023-03-12T00:59:40.815Z,3
2023-03-12T01:00:40.949Z,3
2023-03-12T01:01:40.871Z,3
2023-03-12T01:02:40.864Z,3
2023-03-12T01:03:40.924Z,3
2023-03-12T01:04:40.835Z,3
2023-03-12T01:05:40.832Z,3
2023-03-12T01:06:40.848Z,3
2023-03-12T01:07:40.853Z,3
2023-03-12T01:08:40.845Z,3
2023-03-12T01:09:40.837Z,3
2023-03-12T01:10:40.834Z,3
2023-03-12T01:11:40.855Z,3
2023-03-12T01:12:40.832Z,3
2023-03-12T01:13:40.831Z,3
2023-03-12T01:14:40.834Z,3
2023-03-12T01:15:40.838Z,3
2023-03-12T01:16:40.990Z,3
2023-03-12T01:17:40.840Z,3
2023-03-12T01:18:40.825Z,3
2023-03-12T01:19:40.861Z,3
2023-03-12T01:20:40.840Z,3
2023-03-12T01:21:40.864Z,3
2023-03-12T01:22:40.870Z,3
2023-03-12T01:23:40.838Z,3
2023-03-12T01:24:40.832Z,3
2023-03-12T01:25:40.882Z,3
2023-03-12T01:26:40.864Z,3
2023-03-12T01:27:40.860Z,3
2023-03-12T01:28:40.911Z,3
2023-03-12T01:29:40.906Z,3
2023-03-12T01:30:40.853Z,3
2023-03-12T01:31:40.900Z,3
2023-03-12T01:32:40.899Z,3
2023-03-12T01:33:40.833Z,3
2023-03-12T01:34:40.883Z,3
2023-03-12T01:35:40.994Z,3
2023-03-12T01:36:40.847Z,3
2023-03-12T01:37:40.844Z,3
2023-03-12T01:38:41.117Z,3
2023-03-12T01:39:40.843Z,3
2023-03-12T01:40:40.817Z,3
2023-03-12T01:41:40.828Z,3
2023-03-12T01:42:40.848Z,3
2023-03-12T01:43:40.844Z,3
2023-03-12T01:44:40.817Z,3
2023-03-12T01:45:40.958Z,3
2023-03-12T01:46:40.825Z,3
2023-03-12T01:47:40.842Z,3
2023-03-12T01:48:40.833Z,3
2023-03-12T01:49:40.825Z,3
2023-03-12T01:50:40.815Z,3
2023-03-12T01:51:40.828Z,3
2023-03-12T01:52:40.896Z,3
2023-03-12T01:53:40.822Z,3
2023-03-12T01:54:40.835Z,3
2023-03-12T01:55:40.820Z,3
2023-03-12T01:56:40.849Z,3
2023-03-12T01:57:40.858Z,3
2023-03-12T01:58:40.812Z,2
2023-03-12T01:59:40.822Z,3
2023-03-12T02:00:40.870Z,3
2023-03-12T02:01:40.828Z,3
2023-03-12T02:02:40.863Z,3
2023-03-12T02:03:40.854Z,3
2023-03-12T02:04:40.826Z,3
2023-03-12T02:05:40.827Z,3
2023-03-12T02:06:40.813Z,3
2023-03-12T02:07:40.836Z,3
2023-03-12T02:08:40.813Z,3
2023-03-12T02:09:40.826Z,3
2023-03-12T02:10:40.814Z,3
2023-03-12T02:11:40.814Z,3
2023-03-12T02:12:40.827Z,3
2023-03-12T02:13:40.820Z,3
2023-03-12T02:14:40.816Z,3
2023-03-12T02:15:40.811Z,3
2023-03-12T02:16:40.861Z,3
2023-03-12T02:17:40.909Z,2
2023-03-12T02:18:40.825Z,2
2023-03-12T02:19:41.038Z,3
2023-03-12T02:20:40.816Z,3
2023-03-12T02:21:40.813Z,3
2023-03-12T02:22:40.826Z,3
2023-03-12T02:23:40.816Z,3
2023-03-12T02:24:40.820Z,3
2023-03-12T02:25:40.833Z,3
2023-03-12T02:26:40.856Z,3
2023-03-12T02:27:40.838Z,3
2023-03-12T02:28:40.846Z,3
2023-03-12T02:29:41.086Z,3
2023-03-12T02:30:40.821Z,3
2023-03-12T02:31:40.890Z,3
2023-03-12T02:32:40.850Z,3
2023-03-12T02:33:40.831Z,3
2023-03-12T02:34:40.814Z,3
2023-03-12T02:35:40.851Z,3
2023-03-12T02:36:40.815Z,3
2023-03-12T02:37:40.829Z,3
2023-03-12T02:38:40.832Z,3
2023-03-12T02:39:40.825Z,3
2023-03-12T02:40:40.820Z,3
2023-03-12T02:41:40.807Z,3
2023-03-12T02:42:40.827Z,3
2023-03-12T02:43:40.829Z,3
2023-03-12T02:44:40.847Z,3
2023-03-12T02:45:40.855Z,3
2023-03-12T02:46:40.851Z,3
2023-03-12T02:47:40.816Z,3
2023-03-12T02:48:40.810Z,3
2023-03-12T02:50:40.813Z,3
2023-03-12T02:51:40.806Z,3
2023-03-12T02:52:40.808Z,3
2023-03-12T02:53:40.810Z,3
2023-03-12T02:54:40.834Z,3
2023-03-12T02:55:40.812Z,3
2023-03-12T02:56:40.821Z,3
2023-03-12T02:57:40.825Z,3
2023-03-12T02:58:40.807Z,2
2023-03-12T02:59:40.878Z,2
2023-03-12T03:00:40.812Z,3
2023-03-12T03:01:40.976Z,2
2023-03-12T03:02:40.813Z,2
2023-03-12T03:03:40.807Z,2
2023-03-12T03:04:40.839Z,2
2023-03-12T03:05:40.819Z,3
2023-03-12T03:06:40.808Z,3
2023-03-12T03:07:40.809Z,3
2023-03-12T03:08:40.808Z,2
2023-03-12T03:09:40.831Z,3
2023-03-12T03:10:40.818Z,2
2023-03-12T03:11:40.864Z,2
2023-03-12T03:12:40.801Z,2
2023-03-12T03:13:40.819Z,3
2023-03-12T03:14:40.830Z,2
2023-03-12T03:15:40.866Z,2
2023-03-12T03:16:40.807Z,2
2023-03-12T03:17:40.807Z,3
2023-03-12T03:18:40.817Z,3
2023-03-12T03:19:40.828Z,3
2023-03-12T03:20:40.804Z,2
2023-03-12T03:21:40.832Z,2
2023-03-12T03:23:40.820Z,2
2023-03-12T03:24:40.820Z,3
2023-03-12T03:25:40.802Z,3
2023-03-12T03:26:40.813Z,2
2023-03-12T03:27:40.811Z,3
2023-03-12T03:29:40.904Z,2
2023-03-12T03:30:40.843Z,2
2023-03-12T03:32:40.867Z,3
2023-03-12T03:33:40.812Z,2
2023-03-12T03:34:40.821Z,3
2023-03-12T03:35:40.894Z,2
2023-03-12T03:36:40.808Z,2
2023-03-12T03:37:40.806Z,2
2023-03-12T03:38:40.808Z,3
2023-03-12T03:39:40.829Z,3
2023-03-12T03:40:40.850Z,2
2023-03-12T03:41:40.803Z,3
2023-03-12T03:42:40.821Z,3
2023-03-12T03:43:40.807Z,2
2023-03-12T03:44:40.834Z,3
2023-03-12T03:45:40.954Z,2
2023-03-12T03:46:40.949Z,2
2023-03-12T03:47:40.815Z,2
2023-03-12T03:48:40.807Z,2
2023-03-12T03:49:40.821Z,3
2023-03-12T03:50:40.801Z,2
2023-03-12T03:51:40.800Z,2
2023-03-12T03:52:40.795Z,3
2023-03-12T03:53:40.808Z,2
2023-03-12T03:54:40.826Z,2
2023-03-12T03:55:40.851Z,2
2023-03-12T03:56:40.817Z,2
2023-03-12T03:57:40.808Z,2
2023-03-12T03:58:40.812Z,2
2023-03-12T03:59:40.850Z,2
2023-03-12T04:00:40.796Z,2
2023-03-12T04:01:40.829Z,2
2023-03-12T04:02:40.802Z,2
2023-03-12T04:03:40.881Z,2
2023-03-12T04:04:40.813Z,2
2023-03-12T04:05:40.827Z,2
2023-03-12T04:07:40.860Z,2
2023-03-12T04:08:40.809Z,2
2023-03-12T04:09:40.803Z,2
2023-03-12T04:10:40.796Z,2
2023-03-12T04:11:40.862Z,2
2023-03-12T04:12:40.806Z,2
2023-03-12T04:13:40.807Z,2
2023-03-12T04:14:40.812Z,2
2023-03-12T04:15:40.857Z,2
2023-03-12T04:16:40.851Z,2
2023-03-12T04:17:40.963Z,2
2023-03-12T04:18:40.808Z,2
2023-03-12T04:19:40.797Z,2
2023-03-12T04:20:40.871Z,2
2023-03-12T04:21:40.801Z,2
2023-03-12T04:22:40.805Z,2
2023-03-12T04:23:40.803Z,2
2023-03-12T04:24:40.818Z,2
2023-03-12T04:25:40.813Z,2
2023-03-12T04:26:40.798Z,2
2023-03-12T04:27:40.810Z,2
2023-03-12T04:28:40.819Z,2
2023-03-12T04:29:40.833Z,2
2023-03-12T04:30:40.801Z,2
2023-03-12T04:31:40.850Z,2
2023-03-12T04:32:40.933Z,2
2023-03-12T04:33:40.802Z,2
2023-03-12T04:34:40.798Z,2
2023-03-12T04:35:40.820Z,2
2023-03-12T04:36:40.863Z,2
2023-03-12T04:37:40.800Z,2
2023-03-12T04:38:40.816Z,2
2023-03-12T04:39:40.809Z,2
2023-03-12T04:40:40.806Z,2
2023-03-12T04:41:40.814Z,2
2023-03-12T04:42:40.800Z,2
2023-03-12T04:43:40.826Z,2
2023-03-12T04:44:40.811Z,2
2023-03-12T04:45:40.800Z,2
2023-03-12T04:46:40.836Z,2
2023-03-12T04:47:40.811Z,2
2023-03-12T04:48:40.806Z,2
2023-03-12T04:49:40.804Z,2
2023-03-12T04:50:40.830Z,2
2023-03-12T04:51:40.803Z,2
2023-03-12T04:52:40.805Z,2
2023-03-12T04:53:40.900Z,2
2023-03-12T04:54:40.806Z,2
2023-03-12T04:55:40.813Z,2
2023-03-12T04:56:40.817Z,2
2023-03-12T04:57:40.804Z,2
2023-03-12T04:58:40.812Z,2
2023-03-12T04:59:40.989Z,2
2023-03-12T05:00:40.801Z,2
2023-03-12T05:01:40.801Z,2
2023-03-12T05:02:40.888Z,2
2023-03-12T05:03:40.890Z,2
2023-03-12T05:04:40.805Z,2
2023-03-12T05:05:40.854Z,2
2023-03-12T05:06:40.799Z,2
2023-03-12T05:07:40.831Z,2
2023-03-12T05:08:40.808Z,2
2023-03-12T05:09:40.882Z,2
2023-03-12T05:10:40.818Z,2
2023-03-12T05:11:40.826Z,2
2023-03-12T05:12:40.805Z,2
2023-03-12T05:13:40.815Z,2
2023-03-12T05:14:40.801Z,2
2023-03-12T05:15:40.805Z,2
2023-03-12T05:16:40.956Z,2
2023-03-12T05:17:40.901Z,2
2023-03-12T05:18:40.828Z,2
2023-03-12T05:19:40.814Z,2
2023-03-12T05:20:40.797Z,2
2023-03-12T05:21:40.851Z,2
2023-03-12T05:22:40.810Z,2
2023-03-12T05:23:40.821Z,2
2023-03-12T05:24:40.805Z,2
2023-03-12T05:25:40.805Z,2
2023-03-12T05:26:40.800Z,2
2023-03-12T05:27:40.789Z,2
2023-03-12T05:28:40.815Z,2
2023-03-12T05:29:40.808Z,2
2023-03-12T05:30:41.013Z,2
2023-03-12T05:31:40.870Z,2
2023-03-12T05:32:40.890Z,2
2023-03-12T05:33:40.814Z,2
2023-03-12T05:34:40.887Z,2
2023-03-12T05:35:40.814Z,2
2023-03-12T05:36:40.826Z,2
2023-03-12T05:37:40.811Z,2
2023-03-12T05:38:40.799Z,2
2023-03-12T05:39:40.800Z,2
2023-03-12T05:40:40.823Z,2
2023-03-12T05:41:40.812Z,2
2023-03-12T05:42:40.805Z,2
2023-03-12T05:43:40.849Z,2
2023-03-12T05:44:40.811Z,2
2023-03-12T05:45:40.853Z,2
2023-03-12T05:46:40.829Z,2
2023-03-12T05:47:40.805Z,2
2023-03-12T05:48:40.802Z,2
2023-03-12T05:49:40.796Z,3
2023-03-12T05:50:40.810Z,3
2023-03-12T05:51:40.824Z,3
2023-03-12T05:52:40.806Z,2
2023-03-12T05:53:40.807Z,2
2023-03-12T05:54:40.793Z,3
2023-03-12T05:55:40.824Z,3
2023-03-12T05:56:40.808Z,2
2023-03-12T05:57:40.797Z,2
2023-03-12T05:58:40.824Z,2
2023-03-12T05:59:40.819Z,2
2023-03-12T06:00:40.802Z,2
2023-03-12T06:01:40.815Z,3
2023-03-12T06:02:40.826Z,3
2023-03-12T06:03:41.073Z,3
2023-03-12T06:04:40.799Z,3
2023-03-12T06:05:41.250Z,3
2023-03-12T06:06:40.797Z,3
2023-03-12T06:07:40.786Z,3
2023-03-12T06:08:40.790Z,2
2023-03-12T06:09:40.785Z,2
2023-03-12T06:10:40.795Z,3
2023-03-12T06:11:40.824Z,2
2023-03-12T06:12:40.792Z,2
2023-03-12T06:13:40.843Z,3
2023-03-12T06:14:40.839Z,3
2023-03-12T06:15:40.794Z,3
2023-03-12T06:16:40.907Z,2
2023-03-12T06:17:40.793Z,2
2023-03-12T06:18:40.789Z,2
2023-03-12T06:19:40.811Z,2
2023-03-12T06:20:40.817Z,3
2023-03-12T06:21:40.795Z,2
2023-03-12T06:22:40.788Z,2
2023-03-12T06:23:40.786Z,2
2023-03-12T06:24:40.790Z,3
2023-03-12T06:25:40.801Z,3
2023-03-12T06:26:40.795Z,3
2023-03-12T06:27:40.801Z,3
2023-03-12T06:28:40.801Z,3
2023-03-12T06:29:40.786Z,5
2023-03-12T06:30:40.792Z,4
2023-03-12T06:31:40.825Z,3
2023-03-12T06:32:40.995Z,3
2023-03-12T06:33:40.796Z,5
2023-03-12T06:34:40.840Z,3
2023-03-12T06:35:40.839Z,3
2023-03-12T06:36:40.948Z,4
2023-03-12T06:37:40.790Z,4
2023-03-12T06:38:40.801Z,3
2023-03-12T06:39:40.794Z,5
2023-03-12T06:40:40.797Z,4
2023-03-12T06:41:40.787Z,3
2023-03-12T06:42:40.788Z,3
2023-03-12T06:43:40.806Z,4
2023-03-12T06:44:40.793Z,3
2023-03-12T06:45:40.784Z,3
2023-03-12T06:46:42.698Z,3
2023-03-12T06:47:40.792Z,3
2023-03-12T06:48:40.786Z,3
2023-03-12T06:49:40.786Z,3
2023-03-12T06:50:40.784Z,2
2023-03-12T06:51:40.788Z,3
2023-03-12T06:52:40.785Z,2
2023-03-12T06:53:42.510Z,2
2023-03-12T06:54:40.835Z,2
2023-03-12T06:55:40.788Z,2
2023-03-12T06:56:40.793Z,2
2023-03-12T06:57:40.798Z,3
2023-03-12T06:58:40.817Z,2
2023-03-12T06:59:40.782Z,3
2023-03-12T07:00:40.782Z,2
2023-03-12T07:01:40.779Z,2
2023-03-12T07:02:40.778Z,3
2023-03-12T07:03:40.856Z,2
2023-03-12T07:04:40.811Z,2
2023-03-12T07:05:40.773Z,2
2023-03-12T07:06:40.793Z,2
2023-03-12T07:07:40.824Z,2
2023-03-12T07:08:40.780Z,2
2023-03-12T07:09:40.778Z,2
2023-03-12T07:10:40.791Z,2
2023-03-12T07:11:40.784Z,3
2023-03-12T07:12:40.783Z,2
2023-03-12T07:13:40.824Z,2
2023-03-12T07:14:40.789Z,2
2023-03-12T07:15:40.805Z,3
2023-03-12T07:16:40.789Z,2
2023-03-12T07:17:40.787Z,3
2023-03-12T07:18:40.799Z,2
2023-03-12T07:19:40.801Z,2
2023-03-12T07:20:40.799Z,2
2023-03-12T07:21:40.781Z,2
2023-03-12T07:22:40.786Z,2
2023-03-12T07:23:40.836Z,2
2023-03-12T07:24:40.788Z,2
2023-03-12T07:25:40.798Z,2
2023-03-12T07:26:40.808Z,2
2023-03-12T07:27:40.792Z,2
2023-03-12T07:28:40.794Z,2
2023-03-12T07:29:40.806Z,2
2023-03-12T07:30:40.783Z,3
2023-03-12T07:31:40.860Z,2
2023-03-12T07:32:40.898Z,2
2023-03-12T07:33:40.943Z,2
2023-03-12T07:34:40.837Z,3
2023-03-12T07:35:40.902Z,3
2023-03-12T07:36:40.977Z,2
2023-03-12T07:37:40.787Z,2
2023-03-12T07:38:40.805Z,2
2023-03-12T07:39:40.860Z,2
2023-03-12T07:40:40.923Z,2
2023-03-12T07:41:40.800Z,2
2023-03-12T07:42:40.781Z,2
2023-03-12T07:44:40.781Z,2
2023-03-12T07:45:40.795Z,3
2023-03-12T07:46:40.786Z,2
2023-03-12T07:47:40.955Z,3
2023-03-12T07:48:43.998Z,3
2023-03-12T07:49:40.814Z,2
2023-03-12T07:50:40.773Z,2
2023-03-12T07:51:40.799Z,2
2023-03-12T07:52:40.808Z,3
2023-03-12T07:53:40.802Z,2
2023-03-12T07:54:40.828Z,2
2023-03-12T07:55:40.905Z,2
2023-03-12T07:56:40.872Z,2
2023-03-12T07:57:40.872Z,3
2023-03-12T07:58:40.854Z,3
2023-03-12T07:59:40.793Z,3
2023-03-12T08:00:40.784Z,2
2023-03-12T08:01:40.879Z,3
2023-03-12T08:02:40.901Z,3
2023-03-12T08:03:41.077Z,3
2023-03-12T08:04:41.019Z,3
2023-03-12T08:05:40.904Z,2
2023-03-12T08:06:40.836Z,2
2023-03-12T08:07:40.784Z,3
2023-03-12T08:08:40.856Z,3
2023-03-12T08:09:40.803Z,3
2023-03-12T08:10:40.825Z,2
2023-03-12T08:11:40.850Z,3
2023-03-12T08:12:40.768Z,3
2023-03-12T08:13:40.781Z,3
2023-03-12T08:14:40.936Z,3
2023-03-12T08:15:40.778Z,3
2023-03-12T08:16:40.825Z,3
2023-03-12T08:17:40.781Z,3
2023-03-12T08:18:40.777Z,3
2023-03-12T08:19:40.771Z,3
2023-03-12T08:20:40.761Z,3
2023-03-12T08:21:40.759Z,2
2023-03-12T08:22:40.782Z,2
2023-03-12T08:23:40.773Z,3
2023-03-12T08:24:40.781Z,3
2023-03-12T08:25:40.767Z,2
2023-03-12T08:26:40.773Z,3
2023-03-12T08:27:40.771Z,3
2023-03-12T08:28:40.779Z,2
2023-03-12T08:29:40.773Z,3
2023-03-12T08:30:40.770Z,2
2023-03-12T08:31:53.700Z,2
2023-03-12T08:32:41.109Z,2
2023-03-12T08:33:40.775Z,3
2023-03-12T08:34:40.768Z,2
2023-03-12T08:35:40.791Z,3
2023-03-12T08:36:40.816Z,3
2023-03-12T08:37:40.839Z,3
2023-03-12T08:38:40.771Z,3
2023-03-12T08:39:40.779Z,3
2023-03-12T08:40:40.807Z,2
2023-03-12T08:41:40.769Z,3
2023-03-12T08:42:40.776Z,3
2023-03-12T08:43:40.778Z,2
2023-03-12T08:44:40.769Z,2
2023-03-12T08:45:40.854Z,3
2023-03-12T08:46:40.781Z,2
2023-03-12T08:47:40.779Z,3
2023-03-12T08:48:40.847Z,3
2023-03-12T08:49:40.774Z,2
2023-03-12T08:50:40.777Z,3
2023-03-12T08:51:40.779Z,2
2023-03-12T08:52:40.807Z,3
2023-03-12T08:53:40.955Z,2
2023-03-12T08:54:40.928Z,3
2023-03-12T08:55:41.092Z,3
2023-03-12T08:56:41.160Z,2
2023-03-12T08:57:40.787Z,2
2023-03-12T08:58:40.781Z,3
2023-03-12T08:59:40.780Z,3
2023-03-12T09:00:40.769Z,3
2023-03-12T09:01:43.561Z,3
2023-03-12T09:02:40.869Z,4
2023-03-12T09:03:40.849Z,3
2023-03-12T09:04:40.881Z,3
2023-03-12T09:05:40.793Z,3
2023-03-12T09:06:40.783Z,3
2023-03-12T09:07:40.826Z,3
2023-03-12T09:08:40.793Z,3
2023-03-12T09:09:40.793Z,3
2023-03-12T09:10:40.793Z,3
2023-03-12T09:11:40.810Z,3
2023-03-12T09:12:40.789Z,3
2023-03-12T09:14:03.901Z,3
2023-03-12T09:15:02.525Z,3
2023-03-12T09:15:40.771Z,3
2023-03-12T09:16:40.828Z,3
2023-03-12T09:17:40.778Z,3
2023-03-12T09:18:40.795Z,3
2023-03-12T09:19:40.775Z,3
2023-03-12T09:20:40.788Z,3
2023-03-12T09:21:40.782Z,3
2023-03-12T09:22:40.777Z,3
2023-03-12T09:23:40.784Z,3
2023-03-12T09:24:40.776Z,3
2023-03-12T09:25:40.824Z,3
2023-03-12T09:26:40.775Z,3
2023-03-12T09:27:40.775Z,3
2023-03-12T09:28:40.780Z,3
2023-03-12T09:29:53.461Z,3
2023-03-12T09:30:40.827Z,3
2023-03-12T09:31:40.761Z,3
2023-03-12T09:32:40.890Z,3
2023-03-12T09:33:40.799Z,3
2023-03-12T09:34:40.768Z,3
2023-03-12T09:35:40.788Z,3
2023-03-12T09:36:40.808Z,3
2023-03-12T09:37:40.779Z,3
2023-03-12T09:38:40.797Z,3
2023-03-12T09:39:40.800Z,3
2023-03-12T09:40:40.763Z,3
2023-03-12T09:41:40.798Z,3
2023-03-12T09:42:40.800Z,3
2023-03-12T09:43:40.782Z,3
2023-03-12T09:44:40.789Z,3
2023-03-12T09:45:40.801Z,3
2023-03-12T09:46:40.765Z,3
2023-03-12T09:47:40.782Z,3
2023-03-12T09:48:40.768Z,4
2023-03-12T09:49:40.927Z,4
2023-03-12T09:50:40.797Z,4
2023-03-12T09:51:40.763Z,4
2023-03-12T09:52:40.766Z,3
2023-03-12T09:53:40.770Z,3
2023-03-12T09:54:40.794Z,4
2023-03-12T09:55:40.775Z,4
2023-03-12T09:56:40.778Z,3
2023-03-12T09:57:40.783Z,3
2023-03-12T09:58:40.767Z,5
2023-03-12T09:59:40.823Z,4
2023-03-12T10:00:40.776Z,4
2023-03-12T10:01:40.783Z,3
2023-03-12T10:02:40.766Z,4
2023-03-12T10:03:40.924Z,4
2023-03-12T10:04:58.240Z,4
2023-03-12T10:05:40.788Z,4
2023-03-12T10:06:40.769Z,4
2023-03-12T10:07:40.760Z,4
2023-03-12T10:08:40.767Z,4
2023-03-12T10:09:40.791Z,4
2023-03-12T10:10:40.783Z,4
2023-03-12T10:11:40.781Z,4
2023-03-12T10:12:40.785Z,4
2023-03-12T10:13:40.789Z,4
2023-03-12T10:14:40.779Z,3
2023-03-12T10:15:40.831Z,4
2023-03-12T10:16:40.775Z,4
2023-03-12T10:17:40.808Z,4
2023-03-12T10:18:40.943Z,4
2023-03-12T10:19:40.763Z,4
2023-03-12T10:20:40.792Z,5
2023-03-12T10:21:40.788Z,4
2023-03-12T10:22:40.778Z,4
2023-03-12T10:23:40.810Z,4
2023-03-12T10:24:40.762Z,4
2023-03-12T10:25:40.801Z,4
2023-03-12T10:26:40.807Z,4
2023-03-12T10:27:40.773Z,4
2023-03-12T10:28:40.788Z,4
2023-03-12T10:29:43.354Z,4
2023-03-12T10:30:40.812Z,4
2023-03-12T10:31:40.783Z,4
2023-03-12T10:32:40.852Z,4
2023-03-12T10:33:40.764Z,4
2023-03-12T10:34:40.784Z,4
2023-03-12T10:35:40.866Z,4
2023-03-12T10:36:40.776Z,4
2023-03-12T10:37:40.757Z,4
2023-03-12T10:38:40.784Z,4
2023-03-12T10:39:40.796Z,4
2023-03-12T10:40:40.794Z,4
2023-03-12T10:41:40.815Z,4
2023-03-12T10:42:40.765Z,4
2023-03-12T10:43:40.772Z,4
2023-03-12T10:44:40.879Z,4
2023-03-12T10:45:40.787Z,4
2023-03-12T10:46:40.816Z,4
2023-03-12T10:47:40.770Z,4
2023-03-12T10:48:40.774Z,4
2023-03-12T10:49:40.765Z,4
2023-03-12T10:50:40.793Z,4
2023-03-12T10:51:40.770Z,4
2023-03-12T10:52:40.766Z,4
2023-03-12T10:53:40.766Z,5
2023-03-12T10:54:40.899Z,5
2023-03-12T10:55:40.786Z,5
2023-03-12T10:56:40.774Z,4
2023-03-12T10:57:40.799Z,4
2023-03-12T10:58:40.766Z,4
2023-03-12T10:59:40.767Z,4
2023-03-12T11:00:40.795Z,4
2023-03-12T11:01:40.816Z,4
2023-03-12T11:02:40.766Z,4
2023-03-12T11:03:40.806Z,4
2023-03-12T11:04:40.764Z,4
2023-03-12T11:05:40.850Z,4
2023-03-12T11:06:40.781Z,4
2023-03-12T11:07:40.776Z,5
2023-03-12T11:08:40.774Z,5
2023-03-12T11:09:40.760Z,4
2023-03-12T11:10:40.792Z,4
2023-03-12T11:11:40.762Z,4
2023-03-12T11:12:40.763Z,4
2023-03-12T11:13:40.756Z,4
2023-03-12T11:14:40.768Z,5
2023-03-12T11:15:40.914Z,4
2023-03-12T11:16:40.779Z,4
2023-03-12T11:17:40.768Z,4
2023-03-12T11:18:40.771Z,4
2023-03-12T11:19:40.782Z,4
2023-03-12T11:20:40.813Z,4
2023-03-12T11:21:40.807Z,4
2023-03-12T11:22:40.767Z,4
2023-03-12T11:23:40.861Z,4
2023-03-12T11:24:40.766Z,4
2023-03-12T11:25:40.777Z,4
2023-03-12T11:26:40.764Z,4
2023-03-12T11:27:40.787Z,4
2023-03-12T11:28:40.779Z,4
2023-03-12T11:29:40.880Z,4
2023-03-12T11:30:40.840Z,4
2023-03-12T11:31:40.879Z,4
2023-03-12T11:32:40.900Z,4
2023-03-12T11:33:40.772Z,4
2023-03-12T11:34:40.774Z,4
2023-03-12T11:35:40.800Z,4
2023-03-12T11:36:40.766Z,4
2023-03-12T11:37:40.772Z,5
2023-03-12T11:38:40.779Z,5
2023-03-12T11:39:40.817Z,5
2023-03-12T11:40:40.782Z,5
2023-03-12T11:41:40.809Z,8
2023-03-12T11:42:40.795Z,8
2023-03-12T11:43:44.050Z,6
2023-03-12T11:44:40.787Z,6
2023-03-12T11:45:40.791Z,5
2023-03-12T11:46:40.869Z,4
2023-03-12T11:47:40.836Z,4
2023-03-12T11:48:40.816Z,4
2023-03-12T11:49:40.805Z,4
2023-03-12T11:50:40.763Z,4
2023-03-12T11:51:40.772Z,5
2023-03-12T11:52:40.764Z,6
2023-03-12T11:53:40.771Z,6
2023-03-12T11:54:40.805Z,6
2023-03-12T11:56:40.773Z,6
2023-03-12T11:57:40.763Z,5
2023-03-12T11:58:40.780Z,5
2023-03-12T11:59:40.823Z,4
2023-03-12T12:00:40.770Z,4
2023-03-12T12:01:40.871Z,4
2023-03-12T12:02:40.796Z,4
2023-03-12T12:03:40.781Z,4
2023-03-12T12:04:40.809Z,4
2023-03-12T12:05:40.776Z,5
2023-03-12T12:06:40.760Z,4
2023-03-12T12:07:40.771Z,5
2023-03-12T12:08:40.769Z,4
2023-03-12T12:09:40.788Z,4
2023-03-12T12:10:40.792Z,6
2023-03-12T12:11:40.758Z,5
2023-03-12T12:12:40.767Z,5
2023-03-12T12:13:40.767Z,5
2023-03-12T12:14:40.821Z,5
2023-03-12T12:15:40.766Z,5
2023-03-12T12:16:40.846Z,5
2023-03-12T12:17:40.785Z,4
2023-03-12T12:18:40.757Z,4
2023-03-12T12:19:40.784Z,4
2023-03-12T12:20:40.762Z,4
2023-03-12T12:21:40.765Z,4
2023-03-12T12:22:40.780Z,5
2023-03-12T12:23:40.766Z,4
2023-03-12T12:24:40.780Z,4
2023-03-12T12:25:40.771Z,4
2023-03-12T12:26:40.785Z,5
2023-03-12T12:27:40.769Z,5
2023-03-12T12:28:40.765Z,4
2023-03-12T12:29:40.805Z,4
2023-03-12T12:31:40.859Z,5
2023-03-12T12:32:40.953Z,5
2023-03-12T12:33:40.770Z,5
2023-03-12T12:34:40.799Z,4
2023-03-12T12:35:40.860Z,5
2023-03-12T12:36:40.833Z,5
2023-03-12T12:37:40.776Z,5
2023-03-12T12:38:40.773Z,4
2023-03-12T12:39:40.799Z,5
2023-03-12T12:40:40.766Z,5
2023-03-12T12:41:40.812Z,6
2023-03-12T12:42:40.767Z,6
2023-03-12T12:43:40.779Z,6
2023-03-12T12:44:40.789Z,7
2023-03-12T12:45:40.940Z,7
2023-03-12T12:46:40.767Z,6
2023-03-12T12:47:40.771Z,6
2023-03-12T12:48:40.797Z,8
2023-03-12T12:49:40.776Z,8
2023-03-12T12:50:40.777Z,8
2023-03-12T12:51:40.758Z,7
2023-03-12T12:52:40.783Z,9
2023-03-12T12:53:40.774Z,8
2023-03-12T12:54:40.762Z,8
2023-03-12T12:55:40.774Z,8
2023-03-12T12:56:40.772Z,9
2023-03-12T12:57:40.775Z,9
2023-03-12T12:58:40.770Z,8
2023-03-12T12:59:40.790Z,7
2023-03-12T13:00:40.768Z,7
2023-03-12T13:01:40.868Z,6
2023-03-12T13:02:40.769Z,6
2023-03-12T13:03:40.958Z,6
2023-03-12T13:04:40.803Z,6
2023-03-12T13:05:40.773Z,7
2023-03-12T13:06:40.825Z,10
2023-03-12T13:07:40.778Z,12
2023-03-12T13:08:40.784Z,18
2023-03-12T13:09:40.783Z,17
2023-03-12T13:10:48.607Z,13
2023-03-12T13:11:40.771Z,13
2023-03-12T13:12:40.784Z,13
2023-03-12T13:13:40.776Z,17
2023-03-12T13:14:40.796Z,10
2023-03-12T13:15:40.828Z,8
2023-03-12T13:16:40.807Z,6
2023-03-12T13:17:40.806Z,5
2023-03-12T13:18:40.781Z,5
2023-03-12T13:19:43.183Z,5
2023-03-12T13:20:40.773Z,6
2023-03-12T13:21:40.802Z,6
2023-03-12T13:22:40.780Z,5
2023-03-12T13:23:40.775Z,5
2023-03-12T13:24:40.770Z,5
2023-03-12T13:25:40.778Z,5
2023-03-12T13:26:40.777Z,5
2023-03-12T13:27:40.777Z,5
2023-03-12T13:28:42.543Z,5
2023-03-12T13:29:40.784Z,4
2023-03-12T13:30:40.835Z,4
2023-03-12T13:31:40.797Z,4
2023-03-12T13:32:40.780Z,5
2023-03-12T13:33:40.784Z,4
2023-03-12T13:34:40.877Z,4
2023-03-12T13:35:40.851Z,4
2023-03-12T13:36:40.773Z,4
2023-03-12T13:37:40.793Z,5
2023-03-12T13:38:40.788Z,5
2023-03-12T13:39:40.821Z,6
2023-03-12T13:40:40.780Z,6
2023-03-12T13:41:40.785Z,6
2023-03-12T13:42:40.786Z,6
2023-03-12T13:43:40.794Z,6
2023-03-12T13:44:40.767Z,5
2023-03-12T13:45:40.783Z,4
2023-03-12T13:46:40.943Z,4
2023-03-12T13:47:40.792Z,4
2023-03-12T13:48:40.786Z,4
2023-03-12T13:49:40.768Z,3
2023-03-12T13:50:40.825Z,3
2023-03-12T13:51:40.774Z,4
2023-03-12T13:52:40.801Z,4
2023-03-12T13:53:40.967Z,3
2023-03-12T13:54:40.768Z,3
2023-03-12T13:55:40.769Z,3
2023-03-12T13:56:40.769Z,3
2023-03-12T13:57:40.781Z,3
2023-03-12T13:58:40.790Z,3
2023-03-12T13:59:40.835Z,3
2023-03-12T14:00:40.788Z,3
2023-03-12T14:01:40.830Z,3
2023-03-12T14:02:40.784Z,3
2023-03-12T14:03:40.776Z,2
2023-03-12T14:04:40.917Z,3
2023-03-12T14:05:40.784Z,3
2023-03-12T14:06:40.789Z,3
2023-03-12T14:07:40.787Z,3
2023-03-12T14:08:40.778Z,3
2023-03-12T14:09:40.800Z,3
2023-03-12T14:10:40.791Z,3
2023-03-12T14:11:40.780Z,3
2023-03-12T14:12:40.839Z,3
2023-03-12T14:13:40.775Z,3
2023-03-12T14:14:40.787Z,3
2023-03-12T14:15:40.797Z,3
2023-03-12T14:16:40.776Z,3
2023-03-12T14:17:40.789Z,3
2023-03-12T14:18:40.752Z,3
2023-03-12T14:19:40.787Z,3
2023-03-12T14:20:40.804Z,6
2023-03-12T14:21:40.810Z,8
2023-03-12T14:22:40.785Z,6
2023-03-12T14:23:40.751Z,7
2023-03-12T14:24:40.784Z,6
2023-03-12T14:25:40.797Z,5
2023-03-12T14:26:40.776Z,3
2023-03-12T14:27:40.784Z,3
2023-03-12T14:28:40.790Z,3
2023-03-12T14:29:40.780Z,4
2023-03-12T14:30:40.833Z,4
2023-03-12T14:31:40.836Z,4
2023-03-12T14:32:40.824Z,4
2023-03-12T14:33:40.783Z,5
2023-03-12T14:34:40.783Z,6
2023-03-12T14:35:40.813Z,5
2023-03-12T14:36:40.794Z,5
2023-03-12T14:37:40.793Z,4
2023-03-12T14:38:40.784Z,4
2023-03-12T14:39:40.822Z,3
2023-03-12T14:40:40.859Z,3
2023-03-12T14:41:40.782Z,3
2023-03-12T14:42:40.772Z,3
2023-03-12T14:43:40.773Z,3
2023-03-12T14:44:40.777Z,3
2023-03-12T14:45:40.822Z,3
2023-03-12T14:46:40.833Z,3
2023-03-12T14:47:40.783Z,3
2023-03-12T14:48:40.775Z,3
2023-03-12T14:49:40.783Z,3
2023-03-12T14:50:40.813Z,3
2023-03-12T14:51:40.842Z,2
2023-03-12T14:52:40.809Z,3
2023-03-12T14:53:40.789Z,3
2023-03-12T14:54:40.777Z,2
2023-03-12T14:55:40.802Z,2